sensor_id;sensor_type;location;lat;lon;timestamp;P1;durP1;ratioP1;P2;durP2;ratioP2
4873;SDS011;2451;49.970;9.068;2022-12-18T00:00:31;72.97;;;31.88;;
4873;SDS011;2451;49.970;9.068;2022-12-18T00:02:57;65.65;;;31.65;;
4873;SDS011;2451;49.970;9.068;2022-12-18T00:05:22;67.50;;;31.10;;
4873;SDS011;2451;49.970;9.068;2022-12-18T00:07:48;63.55;;;29.40;;
4873;SDS011;2451;49.970;9.068;2022-12-18T00:10:14;56.72;;;28.63;;
4873;SDS011;2451;49.970;9.068;2022-12-18T00:12:39;59.10;;;27.58;;
4873;SDS011;2451;49.970;9.068;2022-12-18T00:15:05;63.28;;;28.70;;
4873;SDS011;2451;49.970;9.068;2022-12-18T00:17:31;66.35;;;29.77;;
4873;SDS011;2451;49.970;9.068;2022-12-18T00:19:56;71.88;;;31.45;;
4873;SDS011;2451;49.970;9.068;2022-12-18T00:22:22;61.95;;;28.30;;
4873;SDS011;2451;49.970;9.068;2022-12-18T00:24:48;64.65;;;29.20;;
4873;SDS011;2451;49.970;9.068;2022-12-18T00:27:13;60.45;;;28.25;;
4873;SDS011;2451;49.970;9.068;2022-12-18T00:29:39;61.58;;;28.52;;
4873;SDS011;2451;49.970;9.068;2022-12-18T00:32:04;59.78;;;27.42;;
4873;SDS011;2451;49.970;9.068;2022-12-18T00:34:30;61.17;;;27.90;;
4873;SDS011;2451;49.970;9.068;2022-12-18T00:36:56;68.00;;;28.45;;
4873;SDS011;2451;49.970;9.068;2022-12-18T00:39:21;67.07;;;28.65;;
4873;SDS011;2451;49.970;9.068;2022-12-18T00:41:47;65.03;;;28.23;;
4873;SDS011;2451;49.970;9.068;2022-12-18T00:44:31;66.72;;;27.98;;
4873;SDS011;2451;49.970;9.068;2022-12-18T00:46:57;60.38;;;27.00;;
4873;SDS011;2451;49.970;9.068;2022-12-18T00:49:22;56.75;;;25.73;;
4873;SDS011;2451;49.970;9.068;2022-12-18T00:51:48;64.55;;;27.95;;
4873;SDS011;2451;49.970;9.068;2022-12-18T00:54:14;61.28;;;27.98;;
4873;SDS011;2451;49.970;9.068;2022-12-18T00:56:40;58.95;;;26.67;;
4873;SDS011;2451;49.970;9.068;2022-12-18T00:59:06;60.38;;;27.48;;
4873;SDS011;2451;49.970;9.068;2022-12-18T01:01:32;55.80;;;26.67;;
4873;SDS011;2451;49.970;9.068;2022-12-18T01:03:59;58.83;;;27.00;;
4873;SDS011;2451;49.970;9.068;2022-12-18T01:06:25;60.92;;;28.25;;
4873;SDS011;2451;49.970;9.068;2022-12-18T01:08:51;54.78;;;26.52;;
4873;SDS011;2451;49.970;9.068;2022-12-18T01:11:17;54.45;;;25.30;;
4873;SDS011;2451;49.970;9.068;2022-12-18T01:13:44;61.20;;;27.90;;
4873;SDS011;2451;49.970;9.068;2022-12-18T01:16:13;57.33;;;27.10;;
4873;SDS011;2451;49.970;9.068;2022-12-18T01:18:43;53.03;;;27.17;;
4873;SDS011;2451;49.970;9.068;2022-12-18T01:21:10;58.17;;;26.88;;
4873;SDS011;2451;49.970;9.068;2022-12-18T01:23:37;59.03;;;28.33;;
4873;SDS011;2451;49.970;9.068;2022-12-18T01:26:04;58.30;;;27.35;;
4873;SDS011;2451;49.970;9.068;2022-12-18T01:28:33;58.65;;;26.95;;
4873;SDS011;2451;49.970;9.068;2022-12-18T01:31:13;58.38;;;26.20;;
4873;SDS011;2451;49.970;9.068;2022-12-18T01:33:41;59.78;;;27.83;;
4873;SDS011;2451;49.970;9.068;2022-12-18T01:36:06;56.28;;;25.08;;
4873;SDS011;2451;49.970;9.068;2022-12-18T01:38:32;56.25;;;25.95;;
4873;SDS011;2451;49.970;9.068;2022-12-18T01:40:58;50.30;;;24.70;;
4873;SDS011;2451;49.970;9.068;2022-12-18T01:46:20;58.60;;;27.10;;
4873;SDS011;2451;49.970;9.068;2022-12-18T01:48:50;55.97;;;26.17;;
4873;SDS011;2451;49.970;9.068;2022-12-18T01:51:18;60.25;;;27.92;;
4873;SDS011;2451;49.970;9.068;2022-12-18T01:53:44;65.28;;;28.50;;
4873;SDS011;2451;49.970;9.068;2022-12-18T01:56:13;70.30;;;29.00;;
4873;SDS011;2451;49.970;9.068;2022-12-18T02:01:20;60.03;;;27.00;;
4873;SDS011;2451;49.970;9.068;2022-12-18T02:03:48;63.33;;;27.75;;
4873;SDS011;2451;49.970;9.068;2022-12-18T02:06:19;59.70;;;26.02;;
4873;SDS011;2451;49.970;9.068;2022-12-18T02:11:52;63.33;;;28.30;;
4873;SDS011;2451;49.970;9.068;2022-12-18T02:17:21;60.60;;;27.58;;
4873;SDS011;2451;49.970;9.068;2022-12-18T02:22:43;59.17;;;26.27;;
4873;SDS011;2451;49.970;9.068;2022-12-18T02:25:38;62.67;;;29.73;;
4873;SDS011;2451;49.970;9.068;2022-12-18T02:28:06;58.75;;;27.05;;
4873;SDS011;2451;49.970;9.068;2022-12-18T02:30:36;62.00;;;27.25;;
4873;SDS011;2451;49.970;9.068;2022-12-18T02:33:04;50.92;;;24.77;;
4873;SDS011;2451;49.970;9.068;2022-12-18T02:35:33;57.42;;;26.83;;
4873;SDS011;2451;49.970;9.068;2022-12-18T02:38:00;57.10;;;27.27;;
4873;SDS011;2451;49.970;9.068;2022-12-18T02:40:27;50.15;;;24.08;;
4873;SDS011;2451;49.970;9.068;2022-12-18T02:42:54;58.15;;;25.73;;
4873;SDS011;2451;49.970;9.068;2022-12-18T02:45:20;49.25;;;23.92;;
4873;SDS011;2451;49.970;9.068;2022-12-18T02:47:46;52.13;;;24.15;;
4873;SDS011;2451;49.970;9.068;2022-12-18T02:58:29;53.58;;;24.23;;
4873;SDS011;2451;49.970;9.068;2022-12-18T03:03:41;53.25;;;24.63;;
4873;SDS011;2451;49.970;9.068;2022-12-18T03:08:48;54.95;;;25.10;;
4873;SDS011;2451;49.970;9.068;2022-12-18T03:11:17;57.63;;;28.33;;
4873;SDS011;2451;49.970;9.068;2022-12-18T03:14:03;57.90;;;27.20;;
4873;SDS011;2451;49.970;9.068;2022-12-18T03:16:31;56.78;;;26.98;;
4873;SDS011;2451;49.970;9.068;2022-12-18T03:19:07;55.38;;;25.42;;
4873;SDS011;2451;49.970;9.068;2022-12-18T03:21:38;52.78;;;25.25;;
4873;SDS011;2451;49.970;9.068;2022-12-18T03:24:08;54.97;;;27.05;;
4873;SDS011;2451;49.970;9.068;2022-12-18T03:26:35;53.17;;;26.10;;
4873;SDS011;2451;49.970;9.068;2022-12-18T03:29:08;55.40;;;25.05;;
4873;SDS011;2451;49.970;9.068;2022-12-18T03:31:39;54.42;;;26.40;;
4873;SDS011;2451;49.970;9.068;2022-12-18T03:34:09;49.08;;;24.83;;
4873;SDS011;2451;49.970;9.068;2022-12-18T03:36:45;59.40;;;26.48;;
4873;SDS011;2451;49.970;9.068;2022-12-18T03:39:10;55.92;;;24.88;;
4873;SDS011;2451;49.970;9.068;2022-12-18T03:44:15;48.63;;;23.83;;
4873;SDS011;2451;49.970;9.068;2022-12-18T03:52:26;45.05;;;21.73;;
4873;SDS011;2451;49.970;9.068;2022-12-18T03:55:12;43.80;;;21.83;;
4873;SDS011;2451;49.970;9.068;2022-12-18T03:57:38;44.97;;;22.23;;
4873;SDS011;2451;49.970;9.068;2022-12-18T04:02:32;45.35;;;21.38;;
4873;SDS011;2451;49.970;9.068;2022-12-18T04:05:00;47.35;;;22.80;;
4873;SDS011;2451;49.970;9.068;2022-12-18T04:07:29;41.88;;;22.73;;
4873;SDS011;2451;49.970;9.068;2022-12-18T04:09:56;43.53;;;21.77;;
4873;SDS011;2451;49.970;9.068;2022-12-18T04:12:24;48.28;;;21.73;;
4873;SDS011;2451;49.970;9.068;2022-12-18T04:14:51;45.75;;;23.10;;
4873;SDS011;2451;49.970;9.068;2022-12-18T04:17:17;44.50;;;20.88;;
4873;SDS011;2451;49.970;9.068;2022-12-18T04:19:42;44.38;;;21.00;;
4873;SDS011;2451;49.970;9.068;2022-12-18T04:22:09;40.85;;;21.38;;
4873;SDS011;2451;49.970;9.068;2022-12-18T04:24:35;42.20;;;20.83;;
4873;SDS011;2451;49.970;9.068;2022-12-18T04:27:01;42.53;;;20.77;;
4873;SDS011;2451;49.970;9.068;2022-12-18T04:29:27;44.20;;;20.83;;
4873;SDS011;2451;49.970;9.068;2022-12-18T04:31:53;41.85;;;20.30;;
4873;SDS011;2451;49.970;9.068;2022-12-18T04:34:19;42.88;;;21.33;;
4873;SDS011;2451;49.970;9.068;2022-12-18T04:36:45;43.88;;;21.63;;
4873;SDS011;2451;49.970;9.068;2022-12-18T04:39:11;48.33;;;21.58;;
4873;SDS011;2451;49.970;9.068;2022-12-18T04:41:37;42.95;;;20.10;;
4873;SDS011;2451;49.970;9.068;2022-12-18T04:44:02;42.08;;;21.13;;
4873;SDS011;2451;49.970;9.068;2022-12-18T04:46:28;45.97;;;21.20;;
4873;SDS011;2451;49.970;9.068;2022-12-18T04:48:54;44.92;;;21.98;;
4873;SDS011;2451;49.970;9.068;2022-12-18T04:51:19;43.33;;;21.73;;
4873;SDS011;2451;49.970;9.068;2022-12-18T04:53:45;44.90;;;21.52;;
4873;SDS011;2451;49.970;9.068;2022-12-18T04:56:12;45.38;;;22.25;;
4873;SDS011;2451;49.970;9.068;2022-12-18T04:58:39;50.72;;;23.13;;
4873;SDS011;2451;49.970;9.068;2022-12-18T05:01:06;47.42;;;23.08;;
4873;SDS011;2451;49.970;9.068;2022-12-18T05:03:33;46.30;;;22.52;;
4873;SDS011;2451;49.970;9.068;2022-12-18T05:05:59;46.13;;;21.90;;
4873;SDS011;2451;49.970;9.068;2022-12-18T05:08:25;49.25;;;21.80;;
4873;SDS011;2451;49.970;9.068;2022-12-18T05:11:11;49.72;;;21.65;;
4873;SDS011;2451;49.970;9.068;2022-12-18T05:16:06;52.50;;;22.45;;
4873;SDS011;2451;49.970;9.068;2022-12-18T05:18:32;47.92;;;21.63;;
4873;SDS011;2451;49.970;9.068;2022-12-18T05:20:58;48.92;;;22.13;;
4873;SDS011;2451;49.970;9.068;2022-12-18T05:23:24;47.22;;;22.38;;
4873;SDS011;2451;49.970;9.068;2022-12-18T05:25:51;48.42;;;22.48;;
4873;SDS011;2451;49.970;9.068;2022-12-18T05:28:17;51.05;;;22.98;;
4873;SDS011;2451;49.970;9.068;2022-12-18T05:30:46;50.58;;;23.65;;
4873;SDS011;2451;49.970;9.068;2022-12-18T05:33:13;51.10;;;24.60;;
4873;SDS011;2451;49.970;9.068;2022-12-18T05:35:39;52.85;;;23.98;;
4873;SDS011;2451;49.970;9.068;2022-12-18T05:38:04;46.55;;;22.42;;
4873;SDS011;2451;49.970;9.068;2022-12-18T05:40:30;44.00;;;22.85;;
4873;SDS011;2451;49.970;9.068;2022-12-18T05:42:55;45.22;;;24.30;;
4873;SDS011;2451;49.970;9.068;2022-12-18T05:45:21;41.75;;;20.45;;
4873;SDS011;2451;49.970;9.068;2022-12-18T05:47:46;49.15;;;23.15;;
4873;SDS011;2451;49.970;9.068;2022-12-18T05:50:12;42.65;;;21.92;;
4873;SDS011;2451;49.970;9.068;2022-12-18T05:52:37;43.20;;;21.70;;
4873;SDS011;2451;49.970;9.068;2022-12-18T05:55:03;50.58;;;22.45;;
4873;SDS011;2451;49.970;9.068;2022-12-18T05:57:29;41.83;;;21.27;;
4873;SDS011;2451;49.970;9.068;2022-12-18T05:59:55;41.15;;;20.00;;
4873;SDS011;2451;49.970;9.068;2022-12-18T06:02:21;44.83;;;22.00;;
4873;SDS011;2451;49.970;9.068;2022-12-18T06:04:46;44.00;;;22.52;;
4873;SDS011;2451;49.970;9.068;2022-12-18T06:07:12;44.90;;;21.25;;
4873;SDS011;2451;49.970;9.068;2022-12-18T06:09:37;41.88;;;21.70;;
4873;SDS011;2451;49.970;9.068;2022-12-18T06:12:03;46.45;;;22.40;;
4873;SDS011;2451;49.970;9.068;2022-12-18T06:14:29;38.92;;;20.60;;
4873;SDS011;2451;49.970;9.068;2022-12-18T06:16:54;43.78;;;21.38;;
4873;SDS011;2451;49.970;9.068;2022-12-18T06:19:20;47.58;;;20.80;;
4873;SDS011;2451;49.970;9.068;2022-12-18T06:21:46;46.63;;;21.67;;
4873;SDS011;2451;49.970;9.068;2022-12-18T06:24:11;45.47;;;20.92;;
4873;SDS011;2451;49.970;9.068;2022-12-18T06:26:40;49.55;;;23.77;;
4873;SDS011;2451;49.970;9.068;2022-12-18T06:29:06;49.00;;;24.23;;
4873;SDS011;2451;49.970;9.068;2022-12-18T06:31:31;47.72;;;22.15;;
4873;SDS011;2451;49.970;9.068;2022-12-18T06:33:57;51.72;;;24.23;;
4873;SDS011;2451;49.970;9.068;2022-12-18T06:36:23;54.13;;;25.63;;
4873;SDS011;2451;49.970;9.068;2022-12-18T06:38:48;51.33;;;24.33;;
4873;SDS011;2451;49.970;9.068;2022-12-18T06:41:18;51.80;;;23.77;;
4873;SDS011;2451;49.970;9.068;2022-12-18T06:43:44;52.75;;;24.65;;
4873;SDS011;2451;49.970;9.068;2022-12-18T06:46:10;53.95;;;25.40;;
4873;SDS011;2451;49.970;9.068;2022-12-18T06:48:37;53.30;;;24.08;;
4873;SDS011;2451;49.970;9.068;2022-12-18T06:51:03;48.55;;;23.98;;
4873;SDS011;2451;49.970;9.068;2022-12-18T06:53:29;55.33;;;24.30;;
4873;SDS011;2451;49.970;9.068;2022-12-18T06:56:02;55.55;;;26.83;;
4873;SDS011;2451;49.970;9.068;2022-12-18T06:58:29;65.28;;;27.90;;
4873;SDS011;2451;49.970;9.068;2022-12-18T07:01:01;63.03;;;28.40;;
4873;SDS011;2451;49.970;9.068;2022-12-18T07:03:29;58.05;;;28.20;;
4873;SDS011;2451;49.970;9.068;2022-12-18T07:05:55;68.15;;;29.67;;
4873;SDS011;2451;49.970;9.068;2022-12-18T07:08:21;63.78;;;28.27;;
4873;SDS011;2451;49.970;9.068;2022-12-18T07:10:46;60.13;;;26.95;;
4873;SDS011;2451;49.970;9.068;2022-12-18T07:13:15;50.17;;;23.45;;
4873;SDS011;2451;49.970;9.068;2022-12-18T07:15:41;49.10;;;24.63;;
4873;SDS011;2451;49.970;9.068;2022-12-18T07:18:07;48.00;;;23.67;;
4873;SDS011;2451;49.970;9.068;2022-12-18T07:20:33;49.53;;;24.02;;
4873;SDS011;2451;49.970;9.068;2022-12-18T07:22:59;53.33;;;22.85;;
4873;SDS011;2451;49.970;9.068;2022-12-18T07:25:27;52.40;;;25.67;;
4873;SDS011;2451;49.970;9.068;2022-12-18T07:27:53;53.47;;;24.55;;
4873;SDS011;2451;49.970;9.068;2022-12-18T07:30:19;52.47;;;24.83;;
4873;SDS011;2451;49.970;9.068;2022-12-18T07:32:47;65.05;;;29.60;;
4873;SDS011;2451;49.970;9.068;2022-12-18T07:35:13;57.58;;;31.05;;
4873;SDS011;2451;49.970;9.068;2022-12-18T07:37:38;57.65;;;28.60;;
4873;SDS011;2451;49.970;9.068;2022-12-18T07:40:04;53.53;;;27.27;;
4873;SDS011;2451;49.970;9.068;2022-12-18T07:42:31;54.05;;;25.50;;
4873;SDS011;2451;49.970;9.068;2022-12-18T07:44:57;57.88;;;28.33;;
4873;SDS011;2451;49.970;9.068;2022-12-18T07:47:23;52.13;;;28.45;;
4873;SDS011;2451;49.970;9.068;2022-12-18T07:49:48;63.72;;;29.67;;
4873;SDS011;2451;49.970;9.068;2022-12-18T07:52:14;68.95;;;34.20;;
4873;SDS011;2451;49.970;9.068;2022-12-18T07:54:40;72.30;;;34.70;;
4873;SDS011;2451;49.970;9.068;2022-12-18T07:57:06;70.82;;;37.00;;
4873;SDS011;2451;49.970;9.068;2022-12-18T07:59:32;68.30;;;35.55;;
4873;SDS011;2451;49.970;9.068;2022-12-18T08:01:58;69.85;;;34.90;;
4873;SDS011;2451;49.970;9.068;2022-12-18T08:04:23;58.50;;;33.30;;
4873;SDS011;2451;49.970;9.068;2022-12-18T08:06:50;65.75;;;34.67;;
4873;SDS011;2451;49.970;9.068;2022-12-18T08:09:16;77.88;;;43.90;;
4873;SDS011;2451;49.970;9.068;2022-12-18T08:11:42;68.93;;;39.97;;
4873;SDS011;2451;49.970;9.068;2022-12-18T08:14:07;66.05;;;37.63;;
4873;SDS011;2451;49.970;9.068;2022-12-18T08:16:33;68.50;;;38.42;;
4873;SDS011;2451;49.970;9.068;2022-12-18T08:18:59;76.82;;;38.97;;
4873;SDS011;2451;49.970;9.068;2022-12-18T08:21:25;74.07;;;38.92;;
4873;SDS011;2451;49.970;9.068;2022-12-18T08:23:56;70.95;;;37.10;;
4873;SDS011;2451;49.970;9.068;2022-12-18T08:26:24;61.95;;;32.38;;
4873;SDS011;2451;49.970;9.068;2022-12-18T08:28:53;63.30;;;32.70;;
4873;SDS011;2451;49.970;9.068;2022-12-18T08:31:22;66.45;;;32.17;;
4873;SDS011;2451;49.970;9.068;2022-12-18T08:33:49;59.85;;;31.10;;
4873;SDS011;2451;49.970;9.068;2022-12-18T08:36:15;78.95;;;35.38;;
4873;SDS011;2451;49.970;9.068;2022-12-18T08:38:45;68.72;;;30.55;;
4873;SDS011;2451;49.970;9.068;2022-12-18T08:41:12;69.25;;;31.35;;
4873;SDS011;2451;49.970;9.068;2022-12-18T08:43:39;56.30;;;26.63;;
4873;SDS011;2451;49.970;9.068;2022-12-18T08:46:24;53.78;;;27.20;;
4873;SDS011;2451;49.970;9.068;2022-12-18T08:48:52;50.55;;;26.17;;
4873;SDS011;2451;49.970;9.068;2022-12-18T08:51:19;53.53;;;26.73;;
4873;SDS011;2451;49.970;9.068;2022-12-18T08:53:45;55.65;;;25.65;;
4873;SDS011;2451;49.970;9.068;2022-12-18T08:56:12;67.32;;;30.55;;
4873;SDS011;2451;49.970;9.068;2022-12-18T08:58:38;52.78;;;23.52;;
4873;SDS011;2451;49.970;9.068;2022-12-18T09:01:05;52.70;;;23.42;;
4873;SDS011;2451;49.970;9.068;2022-12-18T09:03:34;54.78;;;25.83;;
4873;SDS011;2451;49.970;9.068;2022-12-18T09:05:59;50.70;;;21.95;;
4873;SDS011;2451;49.970;9.068;2022-12-18T09:08:25;55.28;;;23.60;;
4873;SDS011;2451;49.970;9.068;2022-12-18T09:10:51;51.80;;;22.90;;
4873;SDS011;2451;49.970;9.068;2022-12-18T09:13:17;50.40;;;22.40;;
4873;SDS011;2451;49.970;9.068;2022-12-18T09:15:47;52.58;;;24.20;;
4873;SDS011;2451;49.970;9.068;2022-12-18T09:18:14;49.22;;;21.77;;
4873;SDS011;2451;49.970;9.068;2022-12-18T09:20:42;51.90;;;24.08;;
4873;SDS011;2451;49.970;9.068;2022-12-18T09:23:08;56.53;;;25.20;;
4873;SDS011;2451;49.970;9.068;2022-12-18T09:25:34;51.45;;;23.15;;
4873;SDS011;2451;49.970;9.068;2022-12-18T09:28:10;53.58;;;23.38;;
4873;SDS011;2451;49.970;9.068;2022-12-18T09:30:43;49.97;;;21.55;;
4873;SDS011;2451;49.970;9.068;2022-12-18T09:33:14;56.42;;;24.15;;
4873;SDS011;2451;49.970;9.068;2022-12-18T09:35:41;56.05;;;22.15;;
4873;SDS011;2451;49.970;9.068;2022-12-18T09:38:08;54.47;;;21.67;;
4873;SDS011;2451;49.970;9.068;2022-12-18T09:40:45;50.95;;;22.25;;
4873;SDS011;2451;49.970;9.068;2022-12-18T09:46:23;55.30;;;22.60;;
4873;SDS011;2451;49.970;9.068;2022-12-18T09:48:54;54.80;;;22.80;;
4873;SDS011;2451;49.970;9.068;2022-12-18T09:51:38;58.83;;;24.67;;
4873;SDS011;2451;49.970;9.068;2022-12-18T09:54:33;55.00;;;22.77;;
4873;SDS011;2451;49.970;9.068;2022-12-18T09:57:03;54.83;;;23.63;;
4873;SDS011;2451;49.970;9.068;2022-12-18T09:59:38;53.05;;;23.83;;
4873;SDS011;2451;49.970;9.068;2022-12-18T10:02:17;53.90;;;22.77;;
4873;SDS011;2451;49.970;9.068;2022-12-18T10:04:47;47.90;;;19.33;;
4873;SDS011;2451;49.970;9.068;2022-12-18T10:07:49;52.33;;;22.45;;
4873;SDS011;2451;49.970;9.068;2022-12-18T10:21:25;45.45;;;19.33;;
4873;SDS011;2451;49.970;9.068;2022-12-18T10:26:38;44.63;;;17.40;;
4873;SDS011;2451;49.970;9.068;2022-12-18T10:29:08;44.42;;;18.30;;
4873;SDS011;2451;49.970;9.068;2022-12-18T10:31:39;40.25;;;17.30;;
4873;SDS011;2451;49.970;9.068;2022-12-18T10:34:14;46.25;;;19.58;;
4873;SDS011;2451;49.970;9.068;2022-12-18T10:36:39;42.05;;;16.38;;
4873;SDS011;2451;49.970;9.068;2022-12-18T10:39:16;39.33;;;16.77;;
4873;SDS011;2451;49.970;9.068;2022-12-18T10:41:44;45.10;;;16.42;;
4873;SDS011;2451;49.970;9.068;2022-12-18T10:46:35;50.33;;;18.50;;
4873;SDS011;2451;49.970;9.068;2022-12-18T10:49:01;41.30;;;17.00;;
4873;SDS011;2451;49.970;9.068;2022-12-18T10:51:29;41.60;;;18.23;;
4873;SDS011;2451;49.970;9.068;2022-12-18T10:54:05;40.70;;;16.10;;
4873;SDS011;2451;49.970;9.068;2022-12-18T10:56:39;46.75;;;19.67;;
4873;SDS011;2451;49.970;9.068;2022-12-18T10:59:07;47.63;;;18.98;;
4873;SDS011;2451;49.970;9.068;2022-12-18T11:01:56;45.13;;;17.88;;
4873;SDS011;2451;49.970;9.068;2022-12-18T11:07:03;38.35;;;15.50;;
4873;SDS011;2451;49.970;9.068;2022-12-18T11:09:35;42.22;;;17.85;;
4873;SDS011;2451;49.970;9.068;2022-12-18T11:12:02;49.47;;;19.00;;
4873;SDS011;2451;49.970;9.068;2022-12-18T11:14:42;43.45;;;18.45;;
4873;SDS011;2451;49.970;9.068;2022-12-18T11:17:21;44.33;;;17.95;;
4873;SDS011;2451;49.970;9.068;2022-12-18T11:19:54;44.08;;;18.77;;
4873;SDS011;2451;49.970;9.068;2022-12-18T11:22:25;43.78;;;18.40;;
4873;SDS011;2451;49.970;9.068;2022-12-18T11:24:56;51.42;;;19.80;;
4873;SDS011;2451;49.970;9.068;2022-12-18T11:27:28;48.03;;;19.55;;
4873;SDS011;2451;49.970;9.068;2022-12-18T11:30:07;47.17;;;20.80;;
4873;SDS011;2451;49.970;9.068;2022-12-18T11:32:42;45.53;;;18.00;;
4873;SDS011;2451;49.970;9.068;2022-12-18T11:35:13;48.33;;;20.88;;
4873;SDS011;2451;49.970;9.068;2022-12-18T11:37:46;46.58;;;18.67;;
4873;SDS011;2451;49.970;9.068;2022-12-18T11:40:19;46.67;;;18.85;;
4873;SDS011;2451;49.970;9.068;2022-12-18T11:42:58;42.55;;;17.80;;
4873;SDS011;2451;49.970;9.068;2022-12-18T11:45:33;43.83;;;18.63;;
4873;SDS011;2451;49.970;9.068;2022-12-18T11:50:56;43.05;;;18.80;;
4873;SDS011;2451;49.970;9.068;2022-12-18T11:53:24;43.78;;;17.67;;
4873;SDS011;2451;49.970;9.068;2022-12-18T11:59:04;42.53;;;18.67;;
4873;SDS011;2451;49.970;9.068;2022-12-18T12:04:18;46.45;;;17.70;;
4873;SDS011;2451;49.970;9.068;2022-12-18T12:15:18;49.50;;;19.38;;
4873;SDS011;2451;49.970;9.068;2022-12-18T12:18:13;48.50;;;19.88;;
4873;SDS011;2451;49.970;9.068;2022-12-18T12:21:05;44.40;;;18.77;;
4873;SDS011;2451;49.970;9.068;2022-12-18T12:26:14;50.17;;;20.55;;
4873;SDS011;2451;49.970;9.068;2022-12-18T12:28:52;51.60;;;19.58;;
4873;SDS011;2451;49.970;9.068;2022-12-18T12:31:49;55.33;;;21.08;;
4873;SDS011;2451;49.970;9.068;2022-12-18T12:40:05;53.58;;;23.70;;
4873;SDS011;2451;49.970;9.068;2022-12-18T12:46:06;44.63;;;18.92;;
4873;SDS011;2451;49.970;9.068;2022-12-18T12:48:52;64.03;;;26.67;;
4873;SDS011;2451;49.970;9.068;2022-12-18T12:51:41;55.05;;;23.05;;
4873;SDS011;2451;49.970;9.068;2022-12-18T12:54:21;44.17;;;18.98;;
4873;SDS011;2451;49.970;9.068;2022-12-18T13:08:02;48.72;;;19.15;;
4873;SDS011;2451;49.970;9.068;2022-12-18T13:10:34;43.50;;;19.73;;
4873;SDS011;2451;49.970;9.068;2022-12-18T13:13:10;52.63;;;21.13;;
4873;SDS011;2451;49.970;9.068;2022-12-18T13:15:42;44.78;;;19.95;;
4873;SDS011;2451;49.970;9.068;2022-12-18T13:18:14;43.47;;;19.35;;
4873;SDS011;2451;49.970;9.068;2022-12-18T13:25:55;52.28;;;20.73;;
4873;SDS011;2451;49.970;9.068;2022-12-18T13:36:25;45.88;;;19.17;;
4873;SDS011;2451;49.970;9.068;2022-12-18T13:44:36;49.13;;;21.63;;
4873;SDS011;2451;49.970;9.068;2022-12-18T13:47:24;46.67;;;19.42;;
4873;SDS011;2451;49.970;9.068;2022-12-18T13:49:58;40.35;;;18.45;;
4873;SDS011;2451;49.970;9.068;2022-12-18T13:52:25;46.92;;;19.55;;
4873;SDS011;2451;49.970;9.068;2022-12-18T13:54:54;47.20;;;20.90;;
4873;SDS011;2451;49.970;9.068;2022-12-18T13:59:55;42.42;;;18.25;;
4873;SDS011;2451;49.970;9.068;2022-12-18T14:02:26;45.38;;;19.95;;
4873;SDS011;2451;49.970;9.068;2022-12-18T14:04:53;47.78;;;21.83;;
4873;SDS011;2451;49.970;9.068;2022-12-18T14:07:20;46.13;;;20.63;;
4873;SDS011;2451;49.970;9.068;2022-12-18T14:09:54;49.80;;;20.17;;
4873;SDS011;2451;49.970;9.068;2022-12-18T14:12:29;43.42;;;18.60;;
4873;SDS011;2451;49.970;9.068;2022-12-18T14:15:26;46.67;;;20.58;;
4873;SDS011;2451;49.970;9.068;2022-12-18T14:18:17;48.88;;;19.98;;
4873;SDS011;2451;49.970;9.068;2022-12-18T14:21:01;48.20;;;19.40;;
4873;SDS011;2451;49.970;9.068;2022-12-18T14:23:39;46.95;;;19.88;;
4873;SDS011;2451;49.970;9.068;2022-12-18T14:28:53;46.50;;;19.05;;
4873;SDS011;2451;49.970;9.068;2022-12-18T14:31:21;43.80;;;18.63;;
4873;SDS011;2451;49.970;9.068;2022-12-18T14:33:48;47.47;;;19.60;;
4873;SDS011;2451;49.970;9.068;2022-12-18T14:36:18;46.08;;;18.65;;
4873;SDS011;2451;49.970;9.068;2022-12-18T14:38:57;43.35;;;17.95;;
4873;SDS011;2451;49.970;9.068;2022-12-18T14:41:24;42.08;;;18.63;;
4873;SDS011;2451;49.970;9.068;2022-12-18T14:43:51;40.05;;;16.35;;
4873;SDS011;2451;49.970;9.068;2022-12-18T14:46:28;41.60;;;18.20;;
4873;SDS011;2451;49.970;9.068;2022-12-18T14:48:54;41.95;;;18.70;;
4873;SDS011;2451;49.970;9.068;2022-12-18T14:51:24;41.03;;;17.38;;
4873;SDS011;2451;49.970;9.068;2022-12-18T14:53:58;45.88;;;18.52;;
4873;SDS011;2451;49.970;9.068;2022-12-18T14:56:30;34.55;;;14.68;;
4873;SDS011;2451;49.970;9.068;2022-12-18T14:59:01;44.65;;;17.88;;
4873;SDS011;2451;49.970;9.068;2022-12-18T15:01:35;36.42;;;16.45;;
4873;SDS011;2451;49.970;9.068;2022-12-18T15:04:03;40.85;;;17.10;;
4873;SDS011;2451;49.970;9.068;2022-12-18T15:06:34;48.63;;;20.08;;
4873;SDS011;2451;49.970;9.068;2022-12-18T15:09:03;45.85;;;18.02;;
4873;SDS011;2451;49.970;9.068;2022-12-18T15:11:45;43.50;;;18.60;;
4873;SDS011;2451;49.970;9.068;2022-12-18T15:14:22;39.78;;;17.52;;
4873;SDS011;2451;49.970;9.068;2022-12-18T15:16:51;40.75;;;17.67;;
4873;SDS011;2451;49.970;9.068;2022-12-18T15:19:19;39.17;;;17.67;;
4873;SDS011;2451;49.970;9.068;2022-12-18T15:21:47;42.80;;;18.50;;
4873;SDS011;2451;49.970;9.068;2022-12-18T15:24:21;52.58;;;23.25;;
4873;SDS011;2451;49.970;9.068;2022-12-18T15:26:52;52.47;;;19.45;;
4873;SDS011;2451;49.970;9.068;2022-12-18T15:29:19;44.45;;;18.60;;
4873;SDS011;2451;49.970;9.068;2022-12-18T15:32:20;42.03;;;18.67;;
4873;SDS011;2451;49.970;9.068;2022-12-18T15:34:44;40.90;;;17.88;;
4873;SDS011;2451;49.970;9.068;2022-12-18T15:37:09;42.85;;;18.05;;
4873;SDS011;2451;49.970;9.068;2022-12-18T15:39:35;41.28;;;17.92;;
4873;SDS011;2451;49.970;9.068;2022-12-18T15:42:01;47.22;;;19.52;;
4873;SDS011;2451;49.970;9.068;2022-12-18T15:44:45;48.38;;;20.33;;
4873;SDS011;2451;49.970;9.068;2022-12-18T15:47:12;43.13;;;18.50;;
4873;SDS011;2451;49.970;9.068;2022-12-18T15:49:38;51.03;;;22.90;;
4873;SDS011;2451;49.970;9.068;2022-12-18T15:52:04;44.67;;;19.55;;
4873;SDS011;2451;49.970;9.068;2022-12-18T15:54:30;45.80;;;18.65;;
4873;SDS011;2451;49.970;9.068;2022-12-18T15:57:14;41.83;;;18.77;;
4873;SDS011;2451;49.970;9.068;2022-12-18T15:59:49;45.38;;;19.30;;
4873;SDS011;2451;49.970;9.068;2022-12-18T16:02:18;42.67;;;19.52;;
4873;SDS011;2451;49.970;9.068;2022-12-18T16:04:44;43.22;;;19.17;;
4873;SDS011;2451;49.970;9.068;2022-12-18T16:07:13;45.20;;;19.23;;
4873;SDS011;2451;49.970;9.068;2022-12-18T16:09:39;43.13;;;18.88;;
4873;SDS011;2451;49.970;9.068;2022-12-18T16:12:06;48.00;;;18.52;;
4873;SDS011;2451;49.970;9.068;2022-12-18T16:14:38;48.83;;;19.85;;
4873;SDS011;2451;49.970;9.068;2022-12-18T16:17:05;46.17;;;19.73;;
4873;SDS011;2451;49.970;9.068;2022-12-18T16:19:34;48.85;;;19.70;;
4873;SDS011;2451;49.970;9.068;2022-12-18T16:22:00;41.63;;;19.48;;
4873;SDS011;2451;49.970;9.068;2022-12-18T16:24:29;45.10;;;20.35;;
4873;SDS011;2451;49.970;9.068;2022-12-18T16:26:57;45.03;;;21.23;;
4873;SDS011;2451;49.970;9.068;2022-12-18T16:29:24;51.83;;;22.20;;
4873;SDS011;2451;49.970;9.068;2022-12-18T16:31:54;49.47;;;22.02;;
4873;SDS011;2451;49.970;9.068;2022-12-18T16:34:21;61.60;;;26.70;;
4873;SDS011;2451;49.970;9.068;2022-12-18T16:36:49;58.08;;;25.45;;
4873;SDS011;2451;49.970;9.068;2022-12-18T16:39:15;52.03;;;21.98;;
4873;SDS011;2451;49.970;9.068;2022-12-18T16:41:41;50.42;;;22.83;;
4873;SDS011;2451;49.970;9.068;2022-12-18T16:44:07;49.30;;;20.98;;
4873;SDS011;2451;49.970;9.068;2022-12-18T16:46:32;45.65;;;21.63;;
4873;SDS011;2451;49.970;9.068;2022-12-18T16:48:58;45.60;;;21.45;;
4873;SDS011;2451;49.970;9.068;2022-12-18T16:51:24;49.78;;;23.70;;
4873;SDS011;2451;49.970;9.068;2022-12-18T16:53:52;48.13;;;21.77;;
4873;SDS011;2451;49.970;9.068;2022-12-18T16:56:21;47.47;;;22.80;;
4873;SDS011;2451;49.970;9.068;2022-12-18T16:58:50;50.03;;;23.95;;
4873;SDS011;2451;49.970;9.068;2022-12-18T17:01:16;45.50;;;22.60;;
4873;SDS011;2451;49.970;9.068;2022-12-18T17:03:42;53.45;;;26.27;;
4873;SDS011;2451;49.970;9.068;2022-12-18T17:06:07;50.45;;;23.20;;
4873;SDS011;2451;49.970;9.068;2022-12-18T17:08:33;49.10;;;23.40;;